首页
METAR-TAF:

METAR-TAF

机场 :

喀布尔, 阿富汗

哈米德·卡尔扎伊国际机场

纬度: 34-38N, 经度: 069-12E, 海拔: 1789米

当前天气观测

该预报发布于32分钟前的21:50 UTC
风速5节,风向西转西南,在南转西南西北之间变化
温度 15°C
湿度 41%
气压 1019 hPa
能见度10公里或以上
1500米以下无云,无积雨云

METAR: OAKB 252150Z 24005KT 210V320 CAVOK 15/02 Q1019 NOSIG RMK A3010 BLU BLU

时间: 02:52 (22:22 UTC)

预报

该预报发布于5小时和17分钟前的17:05 UTC
预报有效从25日的 18点(UTC)到 26日的 18点(UTC)
风速15节,风向
能见度10公里或以上
1500米以下无云,无积雨云
成为
从 25日的 19点(UTC)到 25日的 21点(UTC)
风速2节,风向多变
几率 30%
从 26日的 02点(UTC)到 26日的 05点(UTC)
能見度: 4500
成为
从 26日的 06点(UTC)到 26日的 08点(UTC)
风速12节,风向
少量云层高于8000英尺
成为
从 26日的 10点(UTC)到 26日的 12点(UTC)
风速15节,风向,有时为25节阵风
成为
从 26日的 15点(UTC)到 26日的 17点(UTC)
能见度10公里或以上
1500米以下无云,无积雨云

TAF: OAKB 251705Z 2518/2618 35015KT CAVOK BECMG 2519/2521 VRB02KT PROB30 2602/2605 4500 HZ BECMG 2606/2608 01012KT FEW080 BECMG 2610/2612 36015G25KT BECMG 2615/2617 CAVOK

超过4000个机场的气象观测和天气预报(METAR&TAF报告)。

可查询的气象台以黄色和红色小点在地图上表示。

将鼠标移到小点上方,可查看气象台名称。

然后点击查看天气观测和预报。

如需切换地图:点击带黑十字的绿色按钮放大地图;点击带横线的绿色按钮缩小地图;或者点击绿色箭头查看邻近地区的地图。


METAR-TAF: